createdAt,value
2023-01-15T00:00:02.940Z,962.72
2023-01-15T00:01:03.419Z,962.64
2023-01-15T00:02:03.008Z,962.55
2023-01-15T00:03:03.019Z,962.52
2023-01-15T00:04:03.125Z,962.55
2023-01-15T00:05:03.191Z,962.55
2023-01-15T00:06:03.186Z,962.49
2023-01-15T00:07:03.083Z,962.55
2023-01-15T00:08:03.143Z,962.58
2023-01-15T00:09:03.072Z,962.58
2023-01-15T00:10:03.117Z,962.42
2023-01-15T00:11:03.219Z,962.49
2023-01-15T00:12:03.034Z,962.39
2023-01-15T00:13:03.037Z,962.41
2023-01-15T00:14:03.043Z,962.27
2023-01-15T00:15:03.092Z,962.41
2023-01-15T00:16:03.363Z,962.52
2023-01-15T00:17:03.214Z,962.39
2023-01-15T00:18:03.213Z,962.21
2023-01-15T00:19:03.173Z,962.14
2023-01-15T00:20:03.196Z,962.19
2023-01-15T00:21:03.334Z,962.16
2023-01-15T00:22:03.248Z,962.27
2023-01-15T00:23:03.131Z,962.19
2023-01-15T00:24:03.103Z,962.21
2023-01-15T00:25:03.112Z,962.11
2023-01-15T00:26:02.935Z,962.08
2023-01-15T00:27:03.050Z,961.88
2023-01-15T00:28:03.100Z,961.94
2023-01-15T00:29:02.961Z,962.02
2023-01-15T00:30:02.891Z,962.02
2023-01-15T00:31:03.983Z,962.13
2023-01-15T00:32:03.889Z,961.99
2023-01-15T00:33:03.818Z,961.93
2023-01-15T00:34:03.660Z,961.88
2023-01-15T00:35:03.787Z,961.90
2023-01-15T00:36:03.653Z,961.79
2023-01-15T00:37:03.659Z,961.85
2023-01-15T00:38:03.571Z,961.68
2023-01-15T00:39:03.486Z,961.79
2023-01-15T00:40:03.566Z,961.62
2023-01-15T00:41:03.405Z,961.65
2023-01-15T00:42:03.347Z,961.62
2023-01-15T00:43:03.259Z,961.53
2023-01-15T00:44:03.312Z,961.53
2023-01-15T00:45:03.516Z,961.56
2023-01-15T00:46:03.200Z,961.59
2023-01-15T00:47:03.255Z,961.59
2023-01-15T00:48:03.509Z,961.53
2023-01-15T00:49:03.419Z,961.55
2023-01-15T00:50:03.377Z,961.61
2023-01-15T00:51:03.574Z,961.53
2023-01-15T00:52:03.565Z,961.41
2023-01-15T00:53:03.408Z,961.53
2023-01-15T00:54:03.424Z,961.50
2023-01-15T00:55:03.321Z,961.50
2023-01-15T00:56:03.308Z,961.55
2023-01-15T00:57:03.151Z,961.44
2023-01-15T00:58:03.200Z,961.61
2023-01-15T00:59:03.092Z,961.47
2023-01-15T01:00:03.023Z,961.33
2023-01-15T01:01:03.284Z,961.41
2023-01-15T01:02:04.142Z,961.24
2023-01-15T01:03:03.916Z,961.27
2023-01-15T01:04:03.828Z,961.16
2023-01-15T01:05:03.727Z,961.30
2023-01-15T01:06:03.664Z,961.24
2023-01-15T01:07:03.588Z,961.35
2023-01-15T01:08:03.653Z,961.24
2023-01-15T01:09:03.621Z,961.27
2023-01-15T01:10:04.145Z,961.18
2023-01-15T01:11:03.872Z,961.18
2023-01-15T01:12:03.643Z,961.15
2023-01-15T01:13:03.623Z,961.24
2023-01-15T01:14:03.525Z,961.24
2023-01-15T01:15:03.567Z,961.12
2023-01-15T01:16:03.550Z,961.18
2023-01-15T01:17:03.511Z,961.24
2023-01-15T01:18:03.363Z,961.15
2023-01-15T01:19:03.740Z,961.29
2023-01-15T01:20:03.597Z,961.18
2023-01-15T01:21:03.745Z,961.26
2023-01-15T01:22:09.217Z,961.12
2023-01-15T01:23:03.718Z,961.32
2023-01-15T01:24:03.618Z,961.15
2023-01-15T01:25:03.339Z,961.23
2023-01-15T01:26:03.396Z,961.26
2023-01-15T01:27:03.247Z,961.17
2023-01-15T01:28:03.200Z,961.17
2023-01-15T01:29:03.074Z,961.20
2023-01-15T01:30:03.122Z,961.12
2023-01-15T01:31:03.178Z,961.11
2023-01-15T01:32:03.027Z,961.17
2023-01-15T01:33:02.928Z,961.25
2023-01-15T01:34:02.944Z,961.17
2023-01-15T01:35:02.987Z,961.33
2023-01-15T01:36:03.928Z,961.19
2023-01-15T01:37:03.884Z,961.27
2023-01-15T01:38:03.704Z,961.33
2023-01-15T01:39:03.927Z,961.27
2023-01-15T01:40:03.815Z,961.33
2023-01-15T01:41:03.874Z,961.24
2023-01-15T01:42:03.807Z,961.04
2023-01-15T01:43:03.709Z,961.01
2023-01-15T01:44:03.699Z,961.13
2023-01-15T01:45:03.655Z,961.07
2023-01-15T01:46:03.731Z,961.07
2023-01-15T01:47:03.563Z,961.15
2023-01-15T01:48:03.464Z,961.07
2023-01-15T01:49:03.351Z,960.90
2023-01-15T01:50:03.292Z,960.78
2023-01-15T01:51:03.194Z,960.76
2023-01-15T01:52:03.224Z,960.83
2023-01-15T01:53:03.079Z,960.73
2023-01-15T01:54:03.093Z,960.70
2023-01-15T01:55:03.039Z,960.78
2023-01-15T01:56:03.163Z,960.67
2023-01-15T01:57:02.992Z,960.70
2023-01-15T01:58:03.039Z,960.70
2023-01-15T01:59:03.057Z,960.85
2023-01-15T02:00:03.106Z,960.64
2023-01-15T02:01:03.252Z,960.75
2023-01-15T02:02:03.179Z,960.69
2023-01-15T02:03:03.874Z,960.72
2023-01-15T02:04:03.750Z,960.69
2023-01-15T02:05:03.730Z,960.66
2023-01-15T02:06:03.643Z,960.69
2023-01-15T02:07:03.694Z,960.52
2023-01-15T02:08:03.615Z,960.57
2023-01-15T02:09:03.602Z,960.66
2023-01-15T02:10:03.666Z,960.60
2023-01-15T02:11:03.525Z,960.46
2023-01-15T02:12:03.513Z,960.54
2023-01-15T02:13:03.395Z,960.54
2023-01-15T02:14:03.348Z,960.62
2023-01-15T02:15:03.286Z,960.62
2023-01-15T02:16:03.278Z,960.51
2023-01-15T02:17:03.191Z,960.59
2023-01-15T02:18:03.109Z,960.62
2023-01-15T02:19:03.034Z,960.68
2023-01-15T02:20:02.994Z,960.48
2023-01-15T02:21:03.117Z,960.62
2023-01-15T02:22:03.079Z,960.65
2023-01-15T02:23:03.005Z,960.76
2023-01-15T02:24:03.753Z,960.71
2023-01-15T02:25:03.038Z,960.53
2023-01-15T02:26:03.145Z,960.67
2023-01-15T02:27:03.028Z,960.56
2023-01-15T02:28:03.888Z,960.50
2023-01-15T02:29:03.815Z,960.65
2023-01-15T02:30:03.708Z,960.73
2023-01-15T02:31:03.676Z,960.61
2023-01-15T02:32:03.657Z,960.50
2023-01-15T02:33:03.532Z,960.44
2023-01-15T02:34:03.525Z,960.50
2023-01-15T02:35:03.451Z,960.50
2023-01-15T02:36:03.290Z,960.53
2023-01-15T02:37:03.157Z,960.47
2023-01-15T02:38:03.254Z,960.64
2023-01-15T02:39:03.292Z,960.56
2023-01-15T02:40:03.221Z,960.56
2023-01-15T02:41:03.281Z,960.39
2023-01-15T02:42:03.288Z,960.42
2023-01-15T02:43:03.299Z,960.47
2023-01-15T02:44:03.236Z,960.44
2023-01-15T02:45:03.246Z,960.39
2023-01-15T02:46:03.429Z,960.36
2023-01-15T02:47:03.147Z,960.36
2023-01-15T02:48:03.185Z,960.30
2023-01-15T02:49:03.191Z,960.25
2023-01-15T02:50:03.231Z,960.42
2023-01-15T02:51:03.053Z,960.42
2023-01-15T02:52:03.071Z,960.42
2023-01-15T02:53:02.972Z,960.39
2023-01-15T02:54:02.990Z,960.27
2023-01-15T02:55:02.926Z,960.39
2023-01-15T02:56:02.879Z,960.30
2023-01-15T02:57:03.844Z,960.25
2023-01-15T02:58:03.854Z,960.22
2023-01-15T02:59:02.897Z,960.27
2023-01-15T03:00:02.919Z,960.25
2023-01-15T03:01:04.177Z,960.11
2023-01-15T03:02:04.114Z,960.25
2023-01-15T03:03:03.794Z,960.19
2023-01-15T03:04:03.775Z,960.19
2023-01-15T03:05:03.805Z,960.16
2023-01-15T03:06:03.664Z,960.27
2023-01-15T03:07:03.700Z,960.22
2023-01-15T03:08:03.544Z,960.19
2023-01-15T03:09:03.286Z,959.99
2023-01-15T03:10:03.354Z,960.25
2023-01-15T03:11:03.174Z,960.19
2023-01-15T03:12:03.293Z,960.08
2023-01-15T03:13:03.312Z,960.08
2023-01-15T03:14:03.343Z,960.16
2023-01-15T03:15:03.431Z,960.08
2023-01-15T03:16:03.230Z,960.13
2023-01-15T03:17:03.261Z,960.13
2023-01-15T03:18:03.237Z,960.19
2023-01-15T03:19:03.345Z,960.13
2023-01-15T03:20:03.303Z,960.13
2023-01-15T03:21:03.215Z,960.05
2023-01-15T03:22:03.135Z,960.11
2023-01-15T03:23:03.124Z,960.08
2023-01-15T03:24:03.142Z,960.19
2023-01-15T03:25:03.020Z,960.14
2023-01-15T03:26:03.060Z,960.16
2023-01-15T03:27:02.936Z,960.11
2023-01-15T03:28:02.969Z,960.02
2023-01-15T03:29:03.036Z,960.02
2023-01-15T03:30:02.920Z,960.05
2023-01-15T03:31:03.894Z,959.96
2023-01-15T03:32:03.728Z,960.05
2023-01-15T03:33:03.695Z,960.11
2023-01-15T03:34:03.680Z,959.99
2023-01-15T03:35:03.606Z,960.16
2023-01-15T03:36:03.569Z,959.96
2023-01-15T03:37:03.574Z,960.02
2023-01-15T03:38:03.464Z,960.05
2023-01-15T03:39:03.502Z,960.08
2023-01-15T03:40:03.408Z,960.08
2023-01-15T03:41:03.712Z,960.25
2023-01-15T03:42:03.641Z,960.19
2023-01-15T03:43:03.583Z,960.02
2023-01-15T03:44:03.484Z,959.99
2023-01-15T03:45:03.385Z,960.02
2023-01-15T03:46:03.529Z,960.11
2023-01-15T03:47:03.405Z,960.02
2023-01-15T03:48:03.387Z,959.99
2023-01-15T03:49:03.212Z,960.02
2023-01-15T03:50:03.243Z,959.93
2023-01-15T03:51:03.292Z,960.07
2023-01-15T03:52:03.309Z,959.88
2023-01-15T03:53:03.253Z,959.93
2023-01-15T03:54:03.394Z,959.90
2023-01-15T03:55:03.160Z,959.96
2023-01-15T03:56:03.066Z,959.90
2023-01-15T03:57:03.044Z,959.85
2023-01-15T03:58:02.971Z,959.93
2023-01-15T03:59:03.013Z,959.79
2023-01-15T04:00:03.913Z,959.85
2023-01-15T04:01:04.171Z,959.82
2023-01-15T04:02:04.136Z,959.76
2023-01-15T04:03:03.677Z,959.85
2023-01-15T04:04:03.924Z,959.73
2023-01-15T04:05:03.762Z,959.87
2023-01-15T04:06:03.709Z,959.73
2023-01-15T04:07:03.711Z,959.90
2023-01-15T04:08:03.696Z,959.90
2023-01-15T04:09:03.570Z,959.84
2023-01-15T04:10:03.041Z,959.76
2023-01-15T04:11:02.949Z,959.96
2023-01-15T04:12:04.050Z,959.81
2023-01-15T04:13:03.793Z,959.76
2023-01-15T04:14:03.815Z,959.73
2023-01-15T04:15:03.868Z,959.78
2023-01-15T04:16:04.136Z,959.81
2023-01-15T04:17:03.839Z,959.81
2023-01-15T04:18:03.675Z,959.65
2023-01-15T04:19:03.707Z,959.84
2023-01-15T04:20:03.675Z,959.76
2023-01-15T04:21:05.836Z,959.87
2023-01-15T04:22:03.530Z,959.81
2023-01-15T04:23:03.455Z,959.79
2023-01-15T04:24:03.392Z,959.76
2023-01-15T04:25:03.361Z,959.84
2023-01-15T04:26:03.217Z,959.87
2023-01-15T04:27:03.203Z,959.90
2023-01-15T04:28:03.242Z,959.96
2023-01-15T04:29:03.218Z,960.04
2023-01-15T04:30:03.137Z,960.13
2023-01-15T04:31:03.154Z,960.19
2023-01-15T04:32:02.951Z,960.30
2023-01-15T04:33:03.920Z,960.22
2023-01-15T04:34:03.893Z,960.30
2023-01-15T04:35:03.771Z,960.34
2023-01-15T04:36:03.704Z,960.31
2023-01-15T04:37:03.657Z,960.63
2023-01-15T04:38:03.619Z,960.27
2023-01-15T04:39:03.614Z,960.33
2023-01-15T04:40:03.644Z,960.39
2023-01-15T04:41:03.672Z,960.32
2023-01-15T04:42:03.622Z,960.46
2023-01-15T04:43:03.549Z,960.69
2023-01-15T04:44:03.533Z,960.56
2023-01-15T04:45:03.516Z,960.59
2023-01-15T04:46:03.610Z,960.57
2023-01-15T04:47:03.389Z,960.51
2023-01-15T04:48:03.276Z,960.79
2023-01-15T04:49:03.157Z,960.72
2023-01-15T04:50:03.178Z,960.64
2023-01-15T04:51:03.078Z,960.53
2023-01-15T04:52:03.015Z,960.68
2023-01-15T04:53:03.018Z,960.74
2023-01-15T04:54:03.035Z,960.68
2023-01-15T04:55:02.863Z,960.68
2023-01-15T04:56:02.994Z,960.79
2023-01-15T04:57:03.935Z,960.79
2023-01-15T04:58:03.791Z,960.79
2023-01-15T04:59:03.770Z,960.91
2023-01-15T05:00:03.736Z,960.82
2023-01-15T05:01:03.898Z,960.82
2023-01-15T05:02:07.289Z,960.97
2023-01-15T05:03:03.534Z,960.97
2023-01-15T05:04:03.610Z,960.91
2023-01-15T05:05:03.428Z,960.97
2023-01-15T05:06:03.439Z,961.05
2023-01-15T05:07:03.461Z,961.03
2023-01-15T05:08:03.329Z,961.03
2023-01-15T05:09:03.343Z,960.97
2023-01-15T05:10:03.243Z,960.86
2023-01-15T05:11:03.161Z,960.89
2023-01-15T05:12:03.296Z,960.86
2023-01-15T05:13:03.186Z,960.92
2023-01-15T05:14:03.201Z,960.81
2023-01-15T05:15:03.216Z,960.78
2023-01-15T05:16:03.329Z,961.01
2023-01-15T05:17:03.256Z,960.90
2023-01-15T05:18:03.103Z,960.96
2023-01-15T05:19:03.089Z,961.01
2023-01-15T05:20:03.069Z,960.79
2023-01-15T05:21:03.061Z,960.99
2023-01-15T05:22:03.014Z,960.96
2023-01-15T05:23:02.943Z,961.10
2023-01-15T05:24:02.915Z,960.96
2023-01-15T05:25:03.320Z,960.96
2023-01-15T05:26:03.296Z,960.96
2023-01-15T05:27:03.214Z,961.08
2023-01-15T05:28:03.113Z,960.96
2023-01-15T05:29:03.000Z,961.02
2023-01-15T05:30:02.988Z,960.94
2023-01-15T05:31:03.020Z,960.88
2023-01-15T05:32:03.851Z,960.88
2023-01-15T05:33:03.738Z,961.00
2023-01-15T05:34:03.797Z,960.91
2023-01-15T05:35:03.690Z,961.11
2023-01-15T05:36:03.599Z,961.00
2023-01-15T05:37:03.586Z,961.23
2023-01-15T05:38:03.600Z,961.17
2023-01-15T05:39:03.634Z,961.26
2023-01-15T05:40:03.692Z,961.26
2023-01-15T05:41:03.679Z,961.17
2023-01-15T05:42:03.641Z,961.23
2023-01-15T05:43:03.533Z,961.15
2023-01-15T05:44:03.438Z,961.23
2023-01-15T05:45:03.380Z,961.20
2023-01-15T05:46:03.543Z,961.26
2023-01-15T05:47:03.725Z,961.24
2023-01-15T05:48:03.496Z,961.35
2023-01-15T05:49:03.374Z,961.35
2023-01-15T05:50:03.261Z,961.41
2023-01-15T05:51:03.309Z,961.44
2023-01-15T05:52:03.291Z,961.52
2023-01-15T05:53:03.302Z,961.47
2023-01-15T05:54:03.308Z,961.47
2023-01-15T05:55:03.204Z,961.53
2023-01-15T05:56:03.202Z,961.41
2023-01-15T05:57:03.163Z,961.41
2023-01-15T05:58:03.082Z,961.39
2023-01-15T05:59:03.106Z,961.30
2023-01-15T06:00:03.027Z,961.39
2023-01-15T06:01:03.064Z,961.36
2023-01-15T06:02:03.883Z,961.36
2023-01-15T06:03:04.036Z,961.39
2023-01-15T06:04:04.004Z,961.50
2023-01-15T06:05:03.846Z,961.39
2023-01-15T06:06:04.089Z,961.31
2023-01-15T06:07:03.772Z,961.45
2023-01-15T06:08:03.677Z,961.45
2023-01-15T06:09:03.712Z,961.43
2023-01-15T06:10:03.591Z,961.48
2023-01-15T06:11:03.659Z,961.46
2023-01-15T06:12:03.573Z,961.32
2023-01-15T06:13:03.558Z,961.40
2023-01-15T06:14:03.407Z,961.55
2023-01-15T06:15:03.449Z,961.63
2023-01-15T06:16:03.500Z,961.61
2023-01-15T06:17:03.441Z,961.53
2023-01-15T06:18:03.379Z,961.50
2023-01-15T06:19:03.291Z,961.59
2023-01-15T06:20:08.538Z,961.65
2023-01-15T06:21:03.683Z,961.59
2023-01-15T06:22:03.526Z,961.73
2023-01-15T06:23:03.443Z,961.68
2023-01-15T06:24:03.441Z,961.74
2023-01-15T06:25:03.445Z,961.79
2023-01-15T06:26:03.416Z,961.83
2023-01-15T06:27:03.401Z,961.80
2023-01-15T06:28:03.475Z,961.86
2023-01-15T06:29:03.401Z,961.77
2023-01-15T06:30:03.798Z,961.72
2023-01-15T06:31:03.795Z,961.69
2023-01-15T06:32:03.691Z,961.78
2023-01-15T06:33:03.577Z,961.72
2023-01-15T06:34:03.619Z,961.81
2023-01-15T06:35:03.443Z,961.83
2023-01-15T06:36:03.459Z,961.81
2023-01-15T06:37:03.353Z,961.84
2023-01-15T06:38:03.355Z,961.64
2023-01-15T06:39:05.780Z,961.75
2023-01-15T06:40:03.344Z,961.90
2023-01-15T06:41:03.407Z,961.84
2023-01-15T06:42:03.391Z,961.76
2023-01-15T06:43:03.293Z,961.90
2023-01-15T06:44:03.305Z,961.84
2023-01-15T06:45:03.294Z,961.90
2023-01-15T06:46:03.181Z,961.90
2023-01-15T06:47:03.086Z,961.96
2023-01-15T06:48:03.139Z,961.84
2023-01-15T06:49:03.043Z,961.96
2023-01-15T06:50:02.976Z,961.96
2023-01-15T06:51:03.027Z,961.90
2023-01-15T06:52:03.019Z,962.07
2023-01-15T06:53:02.975Z,962.07
2023-01-15T06:54:03.012Z,961.93
2023-01-15T06:55:03.103Z,961.99
2023-01-15T06:56:03.023Z,961.99
2023-01-15T06:57:02.932Z,962.10
2023-01-15T06:58:03.022Z,962.20
2023-01-15T06:59:02.936Z,962.23
2023-01-15T07:00:04.056Z,962.32
2023-01-15T07:01:04.150Z,962.32
2023-01-15T07:02:03.766Z,962.41
2023-01-15T07:03:03.700Z,962.51
2023-01-15T07:04:03.824Z,962.41
2023-01-15T07:05:04.039Z,962.49
2023-01-15T07:06:03.896Z,962.39
2023-01-15T07:07:03.811Z,962.36
2023-01-15T07:08:03.722Z,962.36
2023-01-15T07:09:03.755Z,962.36
2023-01-15T07:10:03.804Z,962.42
2023-01-15T07:11:03.810Z,962.48
2023-01-15T07:12:03.708Z,962.61
2023-01-15T07:13:03.703Z,962.46
2023-01-15T07:14:03.656Z,962.59
2023-01-15T07:15:03.106Z,962.51
2023-01-15T07:16:03.203Z,962.53
2023-01-15T07:17:03.085Z,962.54
2023-01-15T07:18:03.079Z,962.51
2023-01-15T07:19:03.033Z,962.41
2023-01-15T07:20:02.933Z,962.51
2023-01-15T07:21:03.898Z,962.57
2023-01-15T07:22:03.752Z,962.57
2023-01-15T07:23:03.796Z,962.74
2023-01-15T07:24:03.919Z,962.74
2023-01-15T07:25:03.644Z,962.75
2023-01-15T07:26:03.640Z,962.75
2023-01-15T07:27:03.597Z,962.72
2023-01-15T07:28:03.456Z,962.69
2023-01-15T07:29:03.497Z,962.72
2023-01-15T07:30:03.388Z,962.84
2023-01-15T07:31:03.577Z,962.81
2023-01-15T07:32:03.396Z,962.84
2023-01-15T07:33:03.311Z,962.96
2023-01-15T07:34:03.243Z,962.73
2023-01-15T07:35:03.199Z,962.85
2023-01-15T07:36:03.085Z,962.85
2023-01-15T07:37:03.139Z,962.82
2023-01-15T07:38:03.094Z,962.85
2023-01-15T07:39:02.955Z,962.94
2023-01-15T07:40:02.911Z,962.97
2023-01-15T07:41:02.908Z,962.97
2023-01-15T07:42:03.833Z,963.11
2023-01-15T07:43:02.864Z,962.97
2023-01-15T07:44:03.835Z,962.94
2023-01-15T07:45:03.904Z,962.97
2023-01-15T07:46:03.903Z,962.91
2023-01-15T07:47:03.748Z,962.86
2023-01-15T07:48:03.811Z,962.84
2023-01-15T07:49:03.811Z,962.98
2023-01-15T07:50:03.750Z,962.95
2023-01-15T07:51:03.685Z,962.98
2023-01-15T07:52:03.719Z,963.12
2023-01-15T07:53:03.615Z,963.15
2023-01-15T07:54:03.603Z,963.12
2023-01-15T07:55:03.588Z,963.38
2023-01-15T07:56:03.610Z,963.32
2023-01-15T07:57:03.427Z,963.21
2023-01-15T07:58:03.360Z,963.13
2023-01-15T07:59:03.318Z,963.32
2023-01-15T08:00:03.297Z,963.33
2023-01-15T08:01:03.378Z,963.18
2023-01-15T08:02:03.330Z,963.41
2023-01-15T08:03:03.146Z,963.21
2023-01-15T08:04:03.119Z,963.27
2023-01-15T08:05:02.953Z,963.41
2023-01-15T08:06:02.946Z,963.24
2023-01-15T08:07:03.826Z,963.36
2023-01-15T08:08:03.808Z,963.16
2023-01-15T08:09:03.733Z,963.27
2023-01-15T08:10:03.611Z,963.36
2023-01-15T08:11:03.628Z,963.25
2023-01-15T08:12:03.476Z,963.33
2023-01-15T08:13:03.500Z,963.16
2023-01-15T08:14:03.349Z,963.05
2023-01-15T08:15:03.368Z,963.16
2023-01-15T08:16:03.380Z,963.33
2023-01-15T08:17:03.235Z,963.27
2023-01-15T08:18:03.203Z,963.30
2023-01-15T08:19:03.195Z,963.33
2023-01-15T08:20:03.078Z,963.22
2023-01-15T08:21:03.040Z,963.22
2023-01-15T08:22:03.031Z,963.25
2023-01-15T08:23:03.005Z,963.13
2023-01-15T08:24:02.918Z,963.05
2023-01-15T08:25:03.801Z,963.08
2023-01-15T08:26:03.819Z,963.13
2023-01-15T08:27:03.838Z,963.22
2023-01-15T08:28:03.790Z,963.27
2023-01-15T08:29:03.836Z,963.41
2023-01-15T08:30:03.732Z,963.27
2023-01-15T08:31:03.854Z,963.22
2023-01-15T08:32:03.857Z,963.30
2023-01-15T08:33:03.955Z,963.47
2023-01-15T08:34:03.049Z,963.44
2023-01-15T08:35:02.926Z,963.53
2023-01-15T08:36:02.982Z,963.44
2023-01-15T08:37:02.917Z,963.58
2023-01-15T08:38:03.909Z,963.50
2023-01-15T08:39:03.181Z,963.50
2023-01-15T08:40:03.123Z,963.50
2023-01-15T08:41:03.149Z,963.44
2023-01-15T08:42:03.549Z,963.56
2023-01-15T08:43:03.420Z,963.36
2023-01-15T08:44:03.439Z,963.56
2023-01-15T08:45:03.284Z,963.45
2023-01-15T08:46:03.515Z,963.50
2023-01-15T08:47:03.266Z,963.45
2023-01-15T08:48:03.170Z,963.64
2023-01-15T08:49:03.962Z,963.62
2023-01-15T08:50:03.170Z,963.73
2023-01-15T08:51:03.009Z,963.67
2023-01-15T08:52:02.958Z,963.67
2023-01-15T08:53:03.902Z,963.76
2023-01-15T08:54:03.760Z,963.73
2023-01-15T08:55:03.706Z,963.62
2023-01-15T08:56:03.623Z,963.65
2023-01-15T08:57:03.639Z,963.76
2023-01-15T08:58:03.600Z,963.76
2023-01-15T08:59:03.589Z,963.82
2023-01-15T09:00:03.434Z,963.73
2023-01-15T09:01:03.627Z,963.65
2023-01-15T09:02:03.796Z,963.59
2023-01-15T09:03:03.400Z,963.60
2023-01-15T09:04:03.457Z,963.65
2023-01-15T09:05:03.563Z,963.74
2023-01-15T09:06:03.327Z,963.60
2023-01-15T09:07:03.320Z,963.88
2023-01-15T09:08:03.279Z,963.85
2023-01-15T09:09:03.293Z,963.88
2023-01-15T09:10:03.186Z,963.88
2023-01-15T09:11:03.094Z,963.90
2023-01-15T09:12:03.050Z,963.77
2023-01-15T09:13:03.097Z,963.90
2023-01-15T09:14:03.069Z,963.88
2023-01-15T09:15:03.656Z,963.88
2023-01-15T09:16:03.061Z,963.93
2023-01-15T09:17:03.055Z,963.77
2023-01-15T09:18:03.190Z,963.96
2023-01-15T09:19:03.087Z,963.93
2023-01-15T09:20:03.279Z,963.99
2023-01-15T09:21:03.145Z,964.05
2023-01-15T09:22:03.092Z,964.08
2023-01-15T09:23:03.060Z,964.13
2023-01-15T09:24:03.080Z,964.05
2023-01-15T09:25:03.071Z,964.22
2023-01-15T09:26:03.147Z,964.05
2023-01-15T09:27:03.104Z,964.14
2023-01-15T09:28:03.062Z,964.25
2023-01-15T09:29:03.101Z,964.17
2023-01-15T09:30:03.110Z,964.08
2023-01-15T09:31:03.236Z,964.25
2023-01-15T09:32:03.118Z,964.34
2023-01-15T09:33:02.967Z,964.23
2023-01-15T09:34:02.939Z,964.29
2023-01-15T09:35:03.011Z,964.40
2023-01-15T09:36:03.710Z,964.29
2023-01-15T09:37:03.628Z,964.49
2023-01-15T09:38:03.557Z,964.43
2023-01-15T09:39:03.625Z,964.54
2023-01-15T09:40:03.706Z,964.49
2023-01-15T09:41:03.685Z,964.46
2023-01-15T09:42:03.733Z,964.52
2023-01-15T09:43:03.694Z,964.49
2023-01-15T09:44:03.621Z,964.52
2023-01-15T09:45:03.644Z,964.38
2023-01-15T09:46:03.744Z,964.58
2023-01-15T09:47:03.454Z,964.41
2023-01-15T09:48:03.371Z,964.63
2023-01-15T09:49:03.293Z,964.57
2023-01-15T09:50:03.217Z,964.63
2023-01-15T09:51:03.207Z,964.55
2023-01-15T09:52:03.187Z,964.60
2023-01-15T09:53:03.123Z,964.77
2023-01-15T09:54:03.100Z,964.71
2023-01-15T09:55:03.001Z,964.57
2023-01-15T09:56:02.984Z,964.57
2023-01-15T09:57:02.957Z,964.60
2023-01-15T09:58:03.873Z,964.51
2023-01-15T09:59:03.859Z,964.51
2023-01-15T10:00:03.866Z,964.63
2023-01-15T10:01:03.877Z,964.57
2023-01-15T10:02:03.808Z,964.62
2023-01-15T10:03:03.930Z,964.48
2023-01-15T10:04:03.846Z,964.54
2023-01-15T10:05:07.540Z,964.73
2023-01-15T10:06:03.725Z,964.62
2023-01-15T10:07:03.657Z,964.62
2023-01-15T10:08:03.632Z,964.57
2023-01-15T10:09:03.509Z,964.59
2023-01-15T10:10:03.531Z,964.62
2023-01-15T10:11:03.616Z,964.68
2023-01-15T10:12:03.444Z,964.68
2023-01-15T10:13:03.385Z,964.68
2023-01-15T10:14:03.420Z,964.76
2023-01-15T10:15:03.299Z,964.62
2023-01-15T10:16:03.287Z,964.74
2023-01-15T10:17:03.144Z,964.74
2023-01-15T10:18:03.131Z,964.79
2023-01-15T10:19:03.071Z,964.68
2023-01-15T10:20:03.137Z,964.84
2023-01-15T10:21:03.024Z,964.84
2023-01-15T10:22:02.953Z,964.77
2023-01-15T10:23:04.569Z,964.80
2023-01-15T10:24:03.909Z,964.80
2023-01-15T10:25:03.884Z,964.77
2023-01-15T10:26:02.884Z,964.77
2023-01-15T10:27:02.896Z,964.84
2023-01-15T10:28:03.876Z,965.01
2023-01-15T10:29:03.872Z,964.85
2023-01-15T10:30:03.765Z,964.90
2023-01-15T10:31:03.709Z,964.96
2023-01-15T10:32:03.753Z,964.96
2023-01-15T10:33:03.984Z,964.88
2023-01-15T10:34:03.755Z,964.96
2023-01-15T10:35:03.606Z,964.96
2023-01-15T10:36:03.541Z,964.85
2023-01-15T10:37:03.499Z,965.08
2023-01-15T10:38:03.320Z,965.02
2023-01-15T10:39:03.375Z,965.14
2023-01-15T10:40:03.424Z,965.05
2023-01-15T10:41:03.327Z,965.02
2023-01-15T10:42:03.310Z,965.08
2023-01-15T10:43:03.246Z,965.19
2023-01-15T10:44:03.176Z,964.97
2023-01-15T10:45:03.175Z,965.19
2023-01-15T10:46:03.247Z,965.14
2023-01-15T10:47:03.042Z,965.02
2023-01-15T10:48:03.082Z,965.05
2023-01-15T10:49:02.976Z,965.05
2023-01-15T10:50:04.002Z,965.00
2023-01-15T10:51:03.784Z,965.14
2023-01-15T10:52:03.764Z,965.14
2023-01-15T10:53:03.724Z,965.03
2023-01-15T10:54:03.641Z,965.14
2023-01-15T10:55:03.604Z,965.00
2023-01-15T10:56:03.472Z,965.00
2023-01-15T10:57:03.460Z,965.22
2023-01-15T10:58:11.096Z,965.16
2023-01-15T10:59:03.378Z,965.14
2023-01-15T11:00:03.330Z,965.13
2023-01-15T11:01:03.382Z,965.11
2023-01-15T11:02:03.304Z,965.19
2023-01-15T11:03:03.142Z,965.16
2023-01-15T11:04:02.944Z,965.02
2023-01-15T11:05:02.946Z,965.10
2023-01-15T11:06:03.875Z,965.02
2023-01-15T11:07:03.819Z,965.13
2023-01-15T11:09:07.689Z,965.13
2023-01-15T11:09:12.250Z,964.99
2023-01-15T11:10:03.010Z,965.22
2023-01-15T11:11:03.057Z,965.22
2023-01-15T11:12:02.967Z,965.16
2023-01-15T11:13:02.916Z,965.24
2023-01-15T11:14:02.962Z,965.27
2023-01-15T11:15:03.897Z,965.13
2023-01-15T11:16:03.951Z,965.01
2023-01-15T11:17:03.960Z,964.96
2023-01-15T11:18:03.008Z,965.04
2023-01-15T11:19:02.973Z,965.15
2023-01-15T11:20:03.857Z,965.27
2023-01-15T11:21:03.760Z,965.13
2023-01-15T11:22:03.703Z,965.18
2023-01-15T11:23:03.680Z,965.21
2023-01-15T11:24:03.604Z,965.21
2023-01-15T11:25:03.636Z,965.38
2023-01-15T11:26:03.509Z,965.21
2023-01-15T11:27:03.414Z,965.29
2023-01-15T11:28:03.352Z,965.35
2023-01-15T11:29:03.348Z,965.38
2023-01-15T11:30:03.374Z,965.32
2023-01-15T11:31:03.416Z,965.26
2023-01-15T11:32:03.277Z,965.26
2023-01-15T11:33:03.337Z,965.29
2023-01-15T11:34:03.229Z,965.26
2023-01-15T11:35:03.226Z,965.32
2023-01-15T11:36:03.290Z,965.29
2023-01-15T11:37:03.212Z,965.26
2023-01-15T11:38:03.098Z,965.15
2023-01-15T11:39:03.020Z,965.29
2023-01-15T11:40:02.983Z,965.10
2023-01-15T11:41:02.901Z,965.24
2023-01-15T11:42:03.837Z,965.24
2023-01-15T11:43:03.766Z,965.24
2023-01-15T11:44:03.700Z,965.33
2023-01-15T11:45:03.584Z,965.27
2023-01-15T11:46:03.745Z,965.41
2023-01-15T11:47:03.573Z,965.33
2023-01-15T11:48:03.498Z,965.42
2023-01-15T11:49:03.554Z,965.44
2023-01-15T11:50:03.501Z,965.30
2023-01-15T11:51:03.501Z,965.30
2023-01-15T11:52:03.436Z,965.30
2023-01-15T11:53:03.403Z,965.33
2023-01-15T11:54:03.238Z,965.42
2023-01-15T11:55:03.364Z,965.33
2023-01-15T11:56:03.221Z,965.30
2023-01-15T11:57:03.311Z,965.39
2023-01-15T11:58:03.178Z,965.30
2023-01-15T11:59:03.245Z,965.19
2023-01-15T12:00:03.209Z,965.28
2023-01-15T12:01:03.230Z,965.19
2023-01-15T12:02:03.022Z,965.19
2023-01-15T12:03:02.866Z,965.19
2023-01-15T12:04:03.176Z,965.33
2023-01-15T12:05:03.917Z,965.30
2023-01-15T12:06:02.999Z,965.25
2023-01-15T12:07:02.996Z,965.36
2023-01-15T12:08:02.902Z,965.25
2023-01-15T12:09:03.888Z,965.14
2023-01-15T12:10:03.849Z,965.05
2023-01-15T12:11:26.585Z,965.16
2023-01-15T12:12:03.624Z,965.19
2023-01-15T12:13:03.647Z,965.08
2023-01-15T12:14:03.492Z,965.08
2023-01-15T12:15:03.522Z,965.02
2023-01-15T12:16:03.637Z,965.05
2023-01-15T12:17:03.493Z,965.24
2023-01-15T12:18:03.479Z,965.27
2023-01-15T12:19:03.336Z,965.25
2023-01-15T12:20:03.388Z,965.19
2023-01-15T12:21:03.294Z,965.13
2023-01-15T12:22:03.373Z,965.16
2023-01-15T12:23:03.306Z,965.41
2023-01-15T12:24:03.206Z,965.21
2023-01-15T12:25:03.134Z,965.16
2023-01-15T12:26:03.110Z,965.07
2023-01-15T12:27:03.008Z,965.24
2023-01-15T12:28:03.063Z,965.16